Time;durP1;ratioP1;P1;durP2;ratioP2;P2;SDS_P1;SDS_P2;PMS_P1;PMS_P2;Temp;Humidity;BMP_temperature;BMP_pressure;BME280_temperature;BME280_humidity;BME280_pressure;Samples;Min_cycle;Max_cycle;Signal;HPM_P1;HPM_P2
2022/11/08 00:03:29;;;;;;;11.33;8.67;;;9.00;99.90;;;;;;5019427;28;20323;-69
2022/11/08 00:14:10;;;;;;;14.30;9.20;;;9.00;99.90;;;;;;5019380;28;20197;-69
2022/11/08 00:16:36;;;;;;;13.80;8.93;;;9.00;99.90;;;;;;5018928;28;20214;-71
2022/11/08 00:19:03;;;;;;;12.37;8.90;;;9.10;99.90;;;;;;5013093;28;20395;-70
2022/11/08 00:21:30;;;;;;;12.73;8.70;;;9.10;99.90;;;;;;5013846;28;20199;-70
2022/11/08 00:23:58;;;;;;;12.90;9.23;;;9.10;99.90;;;;;;5015073;28;20219;-71
2022/11/08 00:26:25;;;;;;;11.90;9.20;;;9.10;99.90;;;;;;5013409;28;20206;-70
2022/11/08 00:28:52;;;;;;;13.63;9.70;;;9.10;99.90;;;;;;5015229;28;20202;-70
2022/11/08 00:31:19;;;;;;;11.87;9.13;;;9.10;99.90;;;;;;5015484;28;20227;-70
2022/11/08 00:33:45;;;;;;;15.90;9.70;;;9.00;99.90;;;;;;5016875;28;20753;-70
2022/11/08 00:36:12;;;;;;;11.10;8.37;;;9.10;99.90;;;;;;5014289;28;20626;-69
2022/11/08 00:38:41;;;;;;;14.87;9.60;;;9.10;99.90;;;;;;5013372;28;20203;-69
2022/11/08 00:41:09;;;;;;;13.07;9.30;;;9.10;99.90;;;;;;5013404;28;20207;-70
2022/11/08 00:43:36;;;;;;;14.63;9.60;;;9.10;99.90;;;;;;5017412;28;20207;-69
2022/11/08 00:46:03;;;;;;;17.43;9.13;;;9.10;99.90;;;;;;5018252;28;20207;-70
2022/11/08 00:48:29;;;;;;;11.27;8.80;;;9.10;99.90;;;;;;5019541;28;20547;-71
2022/11/08 00:51:01;;;;;;;15.47;9.40;;;9.20;99.90;;;;;;5017335;28;20218;-70
2022/11/08 00:53:27;;;;;;;14.53;9.73;;;9.10;99.90;;;;;;5020135;28;20203;-70
2022/11/08 00:55:59;;;;;;;13.03;9.70;;;9.10;99.90;;;;;;5018724;28;20211;-69
2022/11/08 00:58:27;;;;;;;11.97;8.40;;;9.10;99.90;;;;;;5017083;28;20363;-70
2022/11/08 01:00:54;;;;;;;13.10;8.10;;;9.10;99.90;;;;;;5013849;28;20227;-71
2022/11/08 01:03:22;;;;;;;12.03;8.73;;;9.20;99.90;;;;;;5019627;28;20246;-69
2022/11/08 01:05:50;;;;;;;13.30;9.23;;;9.20;99.90;;;;;;5017550;28;20668;-70
2022/11/08 01:08:18;;;;;;;15.27;9.40;;;9.20;99.90;;;;;;5017924;28;20214;-71
2022/11/08 01:10:47;;;;;;;12.77;8.57;;;9.20;99.90;;;;;;5017722;28;20219;-69
2022/11/08 01:13:15;;;;;;;12.97;9.43;;;9.20;99.90;;;;;;5012644;28;20207;-70
2022/11/08 01:15:44;;;;;;;16.13;8.97;;;9.20;99.90;;;;;;5023428;28;20211;-69
2022/11/08 01:18:13;;;;;;;11.73;9.00;;;9.20;99.90;;;;;;5025027;28;20219;-70
2022/11/08 01:20:40;;;;;;;10.30;8.67;;;9.20;99.90;;;;;;5024218;28;20714;-70
2022/11/08 01:23:08;;;;;;;13.17;9.27;;;9.20;99.90;;;;;;5024723;28;20203;-71
2022/11/08 01:25:37;;;;;;;14.37;9.07;;;9.30;99.90;;;;;;5022283;28;20222;-70
2022/11/08 01:28:04;;;;;;;11.73;8.93;;;9.20;99.90;;;;;;5022982;28;20238;-70
2022/11/08 01:30:30;;;;;;;11.03;8.37;;;9.30;99.90;;;;;;5022431;28;20689;-71
2022/11/08 01:32:58;;;;;;;11.47;8.97;;;9.30;99.90;;;;;;5021214;28;20231;-69
2022/11/08 01:35:25;;;;;;;11.83;8.87;;;9.30;99.90;;;;;;5023520;28;20219;-69
2022/11/08 01:37:52;;;;;;;15.40;9.30;;;9.30;99.90;;;;;;5022108;28;20210;-70
2022/11/08 01:40:19;;;;;;;13.30;9.27;;;9.30;99.90;;;;;;5023439;28;20211;-69
2022/11/08 01:42:45;;;;;;;10.30;8.27;;;9.30;99.90;;;;;;5020172;28;20218;-70
2022/11/08 01:45:12;;;;;;;13.50;9.23;;;9.40;99.90;;;;;;5019846;28;20652;-69
2022/11/08 01:47:39;;;;;;;14.63;8.90;;;9.30;99.90;;;;;;5013453;28;20506;-71
2022/11/08 01:50:11;;;;;;;10.60;7.90;;;9.40;99.90;;;;;;5014895;28;20217;-71
2022/11/08 01:52:41;;;;;;;15.10;8.77;;;9.40;99.90;;;;;;5017667;28;20629;-70
2022/11/08 01:55:13;;;;;;;13.60;9.23;;;9.40;99.90;;;;;;5024793;28;20217;-69
2022/11/08 01:57:45;;;;;;;13.87;9.17;;;9.40;99.90;;;;;;5021730;28;20204;-69
2022/11/08 02:00:13;;;;;;;12.20;8.37;;;9.40;99.90;;;;;;5029332;28;20227;-69
2022/11/08 02:02:42;;;;;;;13.20;9.17;;;9.40;99.90;;;;;;5040374;28;20234;-69
2022/11/08 02:05:24;;;;;;;13.10;9.30;;;9.40;99.90;;;;;;5030063;28;20203;-68
2022/11/08 02:07:57;;;;;;;14.70;9.20;;;9.40;99.90;;;;;;5026595;28;20907;-68
2022/11/08 02:10:28;;;;;;;13.03;8.83;;;9.50;99.90;;;;;;5026976;28;20552;-69
2022/11/08 02:12:55;;;;;;;13.77;8.80;;;9.40;99.90;;;;;;5027012;28;20221;-68
2022/11/08 02:15:24;;;;;;;14.53;9.23;;;9.50;99.90;;;;;;5023910;28;20230;-68
2022/11/08 02:17:51;;;;;;;15.30;9.20;;;9.50;99.90;;;;;;5023618;28;20216;-68
2022/11/08 02:20:20;;;;;;;14.30;8.57;;;9.40;99.90;;;;;;5026588;28;20207;-68
2022/11/08 02:22:52;;;;;;;14.77;9.30;;;9.40;99.90;;;;;;5033259;28;20213;-68
2022/11/08 02:25:20;;;;;;;12.37;9.13;;;9.50;99.90;;;;;;5033454;28;20226;-69
2022/11/08 02:27:47;;;;;;;14.07;9.83;;;9.50;99.90;;;;;;5024247;28;20211;-68
2022/11/08 02:30:14;;;;;;;14.00;8.87;;;9.50;99.90;;;;;;5028251;28;20207;-68
2022/11/08 02:32:42;;;;;;;13.10;8.77;;;9.50;99.90;;;;;;5016258;28;20227;-68
2022/11/08 02:35:12;;;;;;;14.93;8.77;;;9.50;99.90;;;;;;5028466;28;20207;-68
2022/11/08 02:37:39;;;;;;;12.63;9.30;;;9.50;99.90;;;;;;5028978;28;20183;-69
2022/11/08 02:40:07;;;;;;;14.60;8.97;;;9.50;99.90;;;;;;5029108;28;20237;-69
2022/11/08 02:42:38;;;;;;;12.60;9.10;;;9.50;99.90;;;;;;5028856;28;20214;-69
2022/11/08 02:45:06;;;;;;;13.93;9.40;;;9.60;99.90;;;;;;5030087;28;20199;-68
2022/11/08 02:47:33;;;;;;;12.03;8.60;;;9.60;99.90;;;;;;5028893;28;20218;-69
2022/11/08 02:50:00;;;;;;;13.70;8.83;;;9.60;99.90;;;;;;5027384;28;20282;-69
2022/11/08 02:52:26;;;;;;;12.90;8.60;;;9.50;99.90;;;;;;5028457;28;20234;-69
2022/11/08 02:54:53;;;;;;;12.67;9.67;;;9.60;99.90;;;;;;5029187;28;20195;-69
2022/11/08 02:57:20;;;;;;;14.37;9.43;;;9.60;99.90;;;;;;5027442;28;20247;-69
2022/11/08 02:59:49;;;;;;;11.80;9.10;;;9.60;99.90;;;;;;5029119;28;20254;-69
2022/11/08 03:02:15;;;;;;;14.10;9.70;;;9.60;99.90;;;;;;5027944;28;20211;-69
2022/11/08 03:04:42;;;;;;;12.07;9.47;;;9.60;99.90;;;;;;5029144;28;20437;-68
2022/11/08 03:07:09;;;;;;;14.63;9.00;;;9.60;99.90;;;;;;5032136;28;20361;-69
2022/11/08 03:09:35;;;;;;;13.03;9.40;;;9.60;99.90;;;;;;5031436;28;20206;-69
2022/11/08 03:12:02;;;;;;;16.67;9.73;;;9.60;99.90;;;;;;5033210;28;20227;-69
2022/11/08 03:14:29;;;;;;;10.63;8.47;;;9.60;99.90;;;;;;5034742;28;20204;-68
2022/11/08 03:16:57;;;;;;;12.23;8.53;;;9.60;99.90;;;;;;5035101;28;20199;-68
2022/11/08 03:19:24;;;;;;;13.77;9.80;;;9.60;99.90;;;;;;5032197;28;20202;-68
2022/11/08 03:21:50;;;;;;;14.60;9.20;;;9.60;99.90;;;;;;5032482;28;20209;-68
2022/11/08 03:24:17;;;;;;;12.93;9.27;;;9.60;99.90;;;;;;5031993;28;20195;-69
2022/11/08 03:26:44;;;;;;;13.13;8.57;;;9.70;99.90;;;;;;5031369;28;20207;-69
2022/11/08 03:29:11;;;;;;;14.07;9.27;;;9.60;99.90;;;;;;5031875;28;20191;-69
2022/11/08 03:31:38;;;;;;;11.63;8.43;;;9.60;99.90;;;;;;5031734;28;20203;-69
2022/11/08 03:34:06;;;;;;;14.20;8.90;;;9.60;99.90;;;;;;5031118;28;20325;-70
2022/11/08 03:36:32;;;;;;;13.93;9.77;;;9.60;99.90;;;;;;5032737;28;20207;-69
2022/11/08 03:38:59;;;;;;;14.27;9.50;;;9.60;99.90;;;;;;5033932;28;20208;-68
2022/11/08 03:41:26;;;;;;;13.50;9.67;;;9.60;99.90;;;;;;5031256;28;20207;-69
2022/11/08 03:43:52;;;;;;;15.90;9.87;;;9.60;99.90;;;;;;5033087;28;20339;-69
2022/11/08 03:46:19;;;;;;;16.00;8.83;;;9.60;99.90;;;;;;5032808;28;20199;-69
2022/11/08 03:48:46;;;;;;;18.47;11.10;;;9.60;99.90;;;;;;5032110;28;20211;-68
2022/11/08 03:51:14;;;;;;;13.20;9.53;;;9.60;99.90;;;;;;5040542;28;20209;-69
2022/11/08 03:53:41;;;;;;;14.13;9.70;;;9.60;99.90;;;;;;5029586;28;20227;-69
2022/11/08 03:56:08;;;;;;;15.17;9.40;;;9.60;99.90;;;;;;5027498;28;20203;-69
2022/11/08 03:58:35;;;;;;;15.27;9.60;;;9.60;99.90;;;;;;5029276;28;20200;-69
2022/11/08 04:01:04;;;;;;;15.13;8.97;;;9.50;99.90;;;;;;5028933;28;20223;-69
2022/11/08 04:03:31;;;;;;;11.67;8.53;;;9.60;99.90;;;;;;5029637;28;20224;-69
2022/11/08 04:05:59;;;;;;;13.00;9.27;;;9.50;99.90;;;;;;5029708;28;20258;-68
2022/11/08 04:08:27;;;;;;;12.73;9.33;;;9.50;99.90;;;;;;5028475;28;20203;-69
2022/11/08 04:10:55;;;;;;;14.90;9.53;;;9.50;99.90;;;;;;5027815;28;20217;-69
2022/11/08 04:16:07;;;;;;;12.93;9.53;;;9.40;99.90;;;;;;5029938;28;20206;-69
2022/11/08 04:21:20;;;;;;;14.23;10.03;;;9.50;99.90;;;;;;5033275;28;20226;-69
2022/11/08 04:23:49;;;;;;;16.20;10.40;;;9.40;99.90;;;;;;5032987;28;20211;-68
2022/11/08 04:26:16;;;;;;;16.80;10.73;;;9.40;99.90;;;;;;5017081;28;20197;-68
2022/11/08 04:28:43;;;;;;;14.63;9.10;;;9.40;99.90;;;;;;5030887;28;20689;-69
2022/11/08 04:31:13;;;;;;;14.90;9.80;;;9.40;99.90;;;;;;5026316;28;20629;-69
2022/11/08 04:33:40;;;;;;;13.53;9.97;;;9.40;99.90;;;;;;5026863;28;20227;-69
2022/11/08 04:36:09;;;;;;;16.53;10.97;;;9.40;99.90;;;;;;5026953;28;20187;-69
2022/11/08 04:38:36;;;;;;;15.80;10.27;;;9.50;99.90;;;;;;5027786;28;20222;-70
2022/11/08 04:41:06;;;;;;;15.77;9.83;;;9.40;99.90;;;;;;5026770;28;20199;-69
2022/11/08 04:43:33;;;;;;;15.60;9.57;;;9.40;99.90;;;;;;5027232;28;20195;-68
2022/11/08 04:46:05;;;;;;;17.03;10.33;;;9.40;99.90;;;;;;5025084;28;20209;-69
2022/11/08 04:48:33;;;;;;;14.63;10.53;;;9.40;99.90;;;;;;5028009;28;20203;-69
2022/11/08 04:51:04;;;;;;;13.83;10.00;;;9.50;99.90;;;;;;5028168;28;20221;-69
2022/11/08 04:53:31;;;;;;;16.37;10.17;;;9.40;99.90;;;;;;5015000;28;20223;-69
2022/11/08 04:56:02;;;;;;;18.17;10.13;;;9.40;99.90;;;;;;5029960;28;20283;-68
2022/11/08 04:58:34;;;;;;;14.30;10.17;;;9.30;99.90;;;;;;5026099;28;20202;-70
2022/11/08 05:01:01;;;;;;;13.57;9.80;;;9.30;99.90;;;;;;5027436;28;20230;-70
2022/11/08 05:03:28;;;;;;;15.90;10.73;;;9.30;99.90;;;;;;5030364;28;20227;-69
2022/11/08 05:05:55;;;;;;;13.97;9.70;;;9.30;99.90;;;;;;5036633;28;20290;-70
2022/11/08 05:08:22;;;;;;;14.97;10.17;;;9.30;99.90;;;;;;5027662;28;20202;-70
2022/11/08 05:10:48;;;;;;;14.93;10.77;;;9.20;99.90;;;;;;5027053;28;20289;-69
2022/11/08 05:13:15;;;;;;;14.07;10.07;;;9.20;99.90;;;;;;5028658;28;20219;-69
2022/11/08 05:15:43;;;;;;;13.87;10.03;;;9.20;99.90;;;;;;5038651;28;20203;-70
2022/11/08 05:18:10;;;;;;;14.03;10.27;;;9.20;99.90;;;;;;5026141;28;20211;-69
2022/11/08 05:23:23;;;;;;;17.47;10.40;;;9.10;99.90;;;;;;5027618;28;20203;-70
2022/11/08 05:25:50;;;;;;;15.77;10.70;;;9.10;99.90;;;;;;5027303;28;20212;-69
2022/11/08 05:28:17;;;;;;;15.77;10.43;;;9.10;99.90;;;;;;5029178;28;20212;-70
2022/11/08 05:30:52;;;;;;;15.97;10.23;;;9.10;99.90;;;;;;5031882;28;20213;-70
2022/11/08 05:33:19;;;;;;;16.00;10.00;;;9.10;99.90;;;;;;5031499;28;20282;-69
2022/11/08 05:35:46;;;;;;;16.67;11.43;;;9.00;99.90;;;;;;5030096;28;20203;-70
2022/11/08 05:38:12;;;;;;;15.57;10.73;;;9.00;99.90;;;;;;5032086;28;20210;-69
2022/11/08 05:40:39;;;;;;;15.47;10.63;;;9.00;99.90;;;;;;5033503;28;20198;-69
2022/11/08 05:43:06;;;;;;;18.07;11.53;;;9.00;99.90;;;;;;5032550;28;20302;-70
2022/11/08 05:45:33;;;;;;;13.80;10.13;;;9.00;99.90;;;;;;5035178;28;20215;-68
2022/11/08 05:48:02;;;;;;;15.33;11.23;;;9.00;99.90;;;;;;5033760;28;20207;-70
2022/11/08 05:50:29;;;;;;;16.97;10.97;;;9.00;99.90;;;;;;5034033;28;20225;-69
2022/11/08 05:52:56;;;;;;;18.20;9.93;;;9.00;99.90;;;;;;5030609;28;20654;-68
2022/11/08 05:55:23;;;;;;;16.50;10.83;;;9.00;99.90;;;;;;5030630;28;20250;-72
2022/11/08 05:57:50;;;;;;;16.20;10.90;;;9.00;99.90;;;;;;5030186;28;20225;-71
2022/11/08 06:00:18;;;;;;;15.33;10.33;;;9.00;99.90;;;;;;5021744;28;20231;-70
2022/11/08 06:02:45;;;;;;;14.70;10.47;;;9.00;99.90;;;;;;5023945;28;20247;-69
2022/11/08 06:05:14;;;;;;;17.97;10.83;;;9.00;99.90;;;;;;5025830;28;20204;-68
2022/11/08 06:07:40;;;;;;;14.33;10.27;;;9.00;99.90;;;;;;5028385;28;20218;-69
2022/11/08 06:10:08;;;;;;;12.87;9.93;;;9.00;99.90;;;;;;5022210;28;20283;-70
2022/11/08 06:12:36;;;;;;;15.33;10.97;;;9.00;99.90;;;;;;5019917;28;20235;-70
2022/11/08 06:15:04;;;;;;;14.67;9.90;;;9.00;99.90;;;;;;5019581;28;20208;-70
2022/11/08 06:17:31;;;;;;;16.03;10.77;;;9.00;99.90;;;;;;5026060;28;20219;-69
2022/11/08 06:19:58;;;;;;;14.27;9.67;;;9.00;99.90;;;;;;5023198;28;20221;-72
2022/11/08 06:22:26;;;;;;;16.23;10.30;;;9.00;99.90;;;;;;5008385;28;20208;-69
2022/11/08 06:24:52;;;;;;;13.50;9.73;;;9.10;99.90;;;;;;5027615;28;20211;-70
2022/11/08 06:27:19;;;;;;;16.13;11.07;;;9.10;99.90;;;;;;5026196;28;20218;-68
2022/11/08 06:29:46;;;;;;;18.43;10.10;;;9.10;99.90;;;;;;5018757;28;20221;-68
2022/11/08 06:32:13;;;;;;;20.93;13.60;;;9.20;99.90;;;;;;5016484;28;20450;-69
2022/11/08 06:34:40;;;;;;;17.90;10.97;;;9.20;99.90;;;;;;5023181;28;20227;-68
2022/11/08 06:37:06;;;;;;;15.27;10.70;;;9.40;99.90;;;;;;5021746;28;20230;-65
2022/11/08 06:39:35;;;;;;;18.58;13.13;;;9.50;99.90;;;;;;5014275;28;20489;-67
2022/11/08 06:42:01;;;;;;;15.80;10.63;;;9.70;99.90;;;;;;5022802;28;20218;-68
2022/11/08 06:44:28;;;;;;;15.37;10.97;;;9.80;99.90;;;;;;5019524;28;20882;-68
2022/11/08 06:46:55;;;;;;;15.03;10.33;;;9.90;99.90;;;;;;5022613;28;20213;-73
2022/11/08 06:49:23;;;;;;;15.57;10.80;;;10.00;99.90;;;;;;5018067;28;20208;-69
2022/11/08 06:51:50;;;;;;;11.67;9.37;;;10.00;99.90;;;;;;5025543;28;20207;-71
2022/11/08 06:54:17;;;;;;;15.43;9.77;;;10.00;99.90;;;;;;5014387;28;20230;-73
2022/11/08 06:56:46;;;;;;;14.33;10.73;;;10.00;99.90;;;;;;5012037;28;20218;-69
2022/11/08 06:59:13;;;;;;;15.40;9.97;;;10.10;99.90;;;;;;5015040;28;20243;-71
2022/11/08 07:01:40;;;;;;;28.43;11.43;;;10.10;99.90;;;;;;5018783;28;20211;-70
2022/11/08 07:04:06;;;;;;;15.03;9.77;;;10.10;99.90;;;;;;5017061;28;20599;-72
2022/11/08 07:06:33;;;;;;;15.87;10.40;;;10.10;99.90;;;;;;5014699;28;20217;-72
2022/11/08 07:09:00;;;;;;;14.47;9.67;;;10.10;99.90;;;;;;5016092;28;20566;-71
2022/11/08 07:11:27;;;;;;;17.27;9.87;;;10.20;99.90;;;;;;5016172;28;20659;-73
2022/11/08 07:13:55;;;;;;;17.40;10.07;;;10.20;99.90;;;;;;5015851;28;20226;-73
2022/11/08 07:16:22;;;;;;;15.37;9.23;;;10.20;99.90;;;;;;5010341;28;20220;-72
2022/11/08 07:18:50;;;;;;;18.63;9.87;;;10.30;99.90;;;;;;5011032;28;20212;-71
2022/11/08 07:21:17;;;;;;;17.47;10.07;;;10.30;99.90;;;;;;5011153;28;20334;-70
2022/11/08 07:23:43;;;;;;;17.57;9.43;;;10.40;99.90;;;;;;5014614;28;20315;-71
2022/11/08 07:26:11;;;;;;;16.70;8.63;;;10.40;99.90;;;;;;5010791;28;20199;-70
2022/11/08 07:28:38;;;;;;;22.87;13.23;;;10.50;99.90;;;;;;5012936;28;20207;-71
2022/11/08 07:31:08;;;;;;;19.37;10.97;;;10.50;99.90;;;;;;5020144;28;20210;-73
2022/11/08 07:33:34;;;;;;;15.07;10.07;;;10.50;99.90;;;;;;5021991;28;20230;-71
2022/11/08 07:36:02;;;;;;;16.63;9.67;;;10.50;99.90;;;;;;5034423;28;20207;-72
2022/11/08 07:38:29;;;;;;;14.97;9.33;;;10.70;99.90;;;;;;5022755;28;20317;-71
2022/11/08 07:40:57;;;;;;;14.40;9.50;;;10.90;99.90;;;;;;5012230;28;20797;-71
2022/11/08 07:43:23;;;;;;;14.73;9.67;;;11.20;99.90;;;;;;5016582;28;20203;-70
2022/11/08 07:45:55;;;;;;;12.87;9.23;;;11.40;99.90;;;;;;5012724;28;20574;-69
2022/11/08 07:48:24;;;;;;;11.27;8.03;;;11.60;99.90;;;;;;5012728;28;20214;-70
2022/11/08 07:50:50;;;;;;;13.63;8.57;;;11.80;99.90;;;;;;5011327;28;20290;-70
2022/11/08 07:53:18;;;;;;;12.20;8.40;;;12.00;99.90;;;;;;5010904;28;20447;-69
2022/11/08 07:55:46;;;;;;;13.07;8.87;;;12.20;99.90;;;;;;5012063;28;20214;-72
2022/11/08 07:58:14;;;;;;;14.30;7.83;;;12.30;99.90;;;;;;5008585;28;20543;-72
2022/11/08 08:00:43;;;;;;;12.70;7.83;;;12.50;99.90;;;;;;5012772;28;20230;-71
2022/11/08 08:03:12;;;;;;;10.70;7.83;;;12.70;99.90;;;;;;5010294;28;20239;-71
2022/11/08 08:05:42;;;;;;;13.33;7.87;;;12.80;99.90;;;;;;5012025;28;20213;-67
2022/11/08 08:08:09;;;;;;;12.23;8.77;;;13.00;99.90;;;;;;5018268;28;20215;-75
2022/11/08 08:10:36;;;;;;;13.67;8.40;;;13.20;99.90;;;;;;5012585;28;20218;-73
2022/11/08 08:13:05;;;;;;;13.17;7.53;;;13.40;99.90;;;;;;5010544;28;20207;-73
2022/11/08 08:15:32;;;;;;;14.20;7.70;;;13.50;99.90;;;;;;5013452;28;20207;-71
2022/11/08 08:18:00;;;;;;;13.63;7.87;;;13.80;99.90;;;;;;5012284;28;20627;-71
2022/11/08 08:20:27;;;;;;;9.87;7.00;;;14.00;99.90;;;;;;5011772;28;20261;-72
2022/11/08 08:22:55;;;;;;;11.60;7.93;;;14.10;99.90;;;;;;5013180;28;20218;-70
2022/11/08 08:25:22;;;;;;;10.93;7.63;;;14.40;99.90;;;;;;5018899;28;20211;-72
2022/11/08 08:27:51;;;;;;;15.43;8.57;;;14.60;99.90;;;;;;5015065;28;20626;-73
2022/11/08 08:30:18;;;;;;;11.97;7.70;;;14.80;99.90;;;;;;5009385;28;20214;-74
2022/11/08 08:32:46;;;;;;;12.57;7.57;;;15.00;99.90;;;;;;5006263;28;20207;-72
2022/11/08 08:35:13;;;;;;;17.17;8.70;;;15.10;99.90;;;;;;5012638;28;20227;-76
2022/11/08 08:37:40;;;;;;;10.13;7.00;;;15.50;99.90;;;;;;5005180;28;20209;-75
2022/11/08 08:40:10;;;;;;;11.60;7.90;;;16.20;99.90;;;;;;5003229;28;20600;-73
2022/11/08 08:42:37;;;;;;;8.05;7.00;;;17.80;99.90;;;;;;4994609;28;20211;-77
2022/11/08 08:45:05;;;;;;;9.48;6.65;;;20.50;99.90;;;;;;4996010;28;20202;-73
2022/11/08 08:47:31;;;;;;;7.78;6.05;;;23.50;98.60;;;;;;4998024;28;20215;-70
2022/11/08 08:49:58;;;;;;;9.55;6.45;;;26.10;82.90;;;;;;5006009;28;20458;-72
2022/11/08 08:52:25;;;;;;;14.20;7.25;;;28.10;66.50;;;;;;5006019;28;20214;-70
2022/11/08 08:54:52;;;;;;;7.68;6.00;;;29.90;59.40;;;;;;5009387;28;20227;-70
2022/11/08 08:57:20;;;;;;;11.60;6.07;;;31.50;53.50;;;;;;5001728;28;20214;-71
2022/11/08 08:59:46;;;;;;;8.20;6.18;;;32.70;49.70;;;;;;5001902;28;20458;-69
2022/11/08 09:02:14;;;;;;;11.98;6.53;;;33.60;45.50;;;;;;5010070;28;20235;-72
2022/11/08 09:04:41;;;;;;;12.25;7.38;;;34.50;43.90;;;;;;5010296;28;20653;-69
2022/11/08 09:07:07;;;;;;;6.80;5.20;;;35.50;42.30;;;;;;5010288;28;20644;-70
2022/11/08 09:09:35;;;;;;;8.50;5.80;;;36.60;40.40;;;;;;5012169;28;20550;-72
2022/11/08 09:12:02;;;;;;;12.30;5.93;;;37.60;38.50;;;;;;5012432;28;20262;-72
2022/11/08 09:14:30;;;;;;;9.65;5.40;;;38.40;37.00;;;;;;5012318;28;20238;-73
2022/11/08 09:16:57;;;;;;;10.93;6.03;;;39.30;35.80;;;;;;5009304;28;20689;-70
2022/11/08 09:19:24;;;;;;;9.68;5.32;;;39.90;34.50;;;;;;5010087;28;20258;-71
2022/11/08 09:21:50;;;;;;;9.50;5.15;;;40.30;33.40;;;;;;5013950;28;20206;-71
2022/11/08 09:24:17;;;;;;;6.40;5.38;;;40.50;33.10;;;;;;5004856;28;20256;-71
2022/11/08 09:26:44;;;;;;;8.52;5.10;;;41.00;32.10;;;;;;5009622;28;20195;-72
2022/11/08 09:29:11;;;;;;;7.45;5.32;;;41.60;31.80;;;;;;5011295;28;20222;-71
2022/11/08 09:31:39;;;;;;;7.32;4.93;;;42.30;31.10;;;;;;5012629;28;20673;-70
2022/11/08 09:34:06;;;;;;;7.05;4.35;;;43.00;30.30;;;;;;5010550;28;20694;-68
2022/11/08 09:36:32;;;;;;;10.32;4.68;;;43.40;29.60;;;;;;5008145;28;20685;-69
2022/11/08 09:38:59;;;;;;;6.53;5.28;;;43.20;29.20;;;;;;5009568;28;20219;-72
2022/11/08 09:42:12;;;;;;;4.85;4.30;;;43.50;29.30;;;;;;5012498;28;20219;-70
2022/11/08 09:45:02;;;;;;;7.70;4.82;;;43.50;28.80;;;;;;4973476;28;20269;-72
2022/11/08 09:47:34;;;;;;;4.93;3.92;;;43.60;28.40;;;;;;5010927;28;20202;-70
2022/11/08 09:50:07;;;;;;;6.30;4.82;;;43.70;28.60;;;;;;5006688;28;20198;-71
2022/11/08 09:52:35;;;;;;;5.10;4.05;;;44.50;28.30;;;;;;5003659;28;20571;-69
2022/11/08 09:55:20;;;;;;;9.32;4.68;;;44.80;27.60;;;;;;5005787;28;20227;-71
2022/11/08 09:57:56;;;;;;;6.32;4.45;;;44.80;27.50;;;;;;5012368;28;20217;-72
2022/11/08 10:00:23;;;;;;;6.35;4.03;;;44.60;27.50;;;;;;5012306;28;20218;-70
2022/11/08 10:02:51;;;;;;;5.05;3.75;;;44.70;27.40;;;;;;5009615;28;20242;-72
2022/11/08 10:05:19;;;;;;;6.78;3.75;;;44.60;27.50;;;;;;5010773;28;20206;-71
2022/11/08 10:07:53;;;;;;;6.20;4.15;;;44.60;27.30;;;;;;5011888;28;20210;-71
2022/11/08 10:10:40;;;;;;;6.97;4.07;;;44.60;27.40;;;;;;5012406;28;20206;-71
2022/11/08 10:13:15;;;;;;;8.35;4.05;;;44.60;27.30;;;;;;5009029;28;20217;-72
2022/11/08 10:15:51;;;;;;;5.95;4.25;;;44.60;27.20;;;;;;5009097;28;20210;-71
2022/11/08 10:18:53;;;;;;;6.20;4.25;;;44.50;27.00;;;;;;5012087;28;20226;-72
2022/11/08 10:21:37;;;;;;;6.32;4.40;;;45.20;26.80;;;;;;4977365;28;20293;-72
2022/11/08 10:24:13;;;;;;;3.85;3.45;;;45.90;26.30;;;;;;5011735;28;20213;-71
2022/11/08 10:26:44;;;;;;;4.97;4.00;;;46.20;26.30;;;;;;5012103;28;20202;-70
2022/11/08 10:29:18;;;;;;;5.32;3.40;;;46.20;26.20;;;;;;5012397;28;20207;-72
2022/11/08 10:31:47;;;;;;;7.65;3.72;;;46.40;26.00;;;;;;5011257;28;20206;-70
2022/11/08 10:34:19;;;;;;;5.93;3.30;;;46.50;26.50;;;;;;5011547;28;20234;-71
2022/11/08 10:36:49;;;;;;;5.80;3.40;;;47.00;25.80;;;;;;5009706;28;20211;-71
2022/11/08 10:39:21;;;;;;;7.13;3.78;;;47.50;25.50;;;;;;5007997;28;20686;-71
2022/11/08 10:41:55;;;;;;;5.57;3.65;;;47.40;25.20;;;;;;5011556;28;20206;-70
2022/11/08 10:44:24;;;;;;;5.15;3.45;;;47.70;25.20;;;;;;5009437;28;20198;-71
2022/11/08 10:46:57;;;;;;;4.55;2.80;;;47.90;25.10;;;;;;5011451;28;20289;-70
2022/11/08 10:49:27;;;;;;;5.35;3.45;;;48.20;24.70;;;;;;5010988;28;20213;-71
2022/11/08 10:51:56;;;;;;;5.63;2.97;;;48.10;24.70;;;;;;5012931;28;20211;-71
2022/11/08 10:54:47;;;;;;;6.25;3.45;;;47.80;24.80;;;;;;5011634;28;20225;-72
2022/11/08 10:57:16;;;;;;;5.07;3.45;;;47.90;24.70;;;;;;5009395;28;20257;-70
2022/11/08 10:59:44;;;;;;;3.80;2.75;;;47.90;24.60;;;;;;5007504;28;20226;-70
2022/11/08 11:02:19;;;;;;;4.03;2.92;;;47.60;24.70;;;;;;5011851;28;20207;-72
2022/11/08 11:04:47;;;;;;;2.88;2.55;;;47.60;24.70;;;;;;5006730;28;20202;-70
2022/11/08 11:07:33;;;;;;;3.50;2.53;;;47.20;24.70;;;;;;5007697;28;20580;-71
2022/11/08 11:10:21;;;;;;;3.80;2.05;;;46.80;24.90;;;;;;5010079;28;20210;-72
2022/11/08 11:12:50;;;;;;;3.85;2.80;;;46.70;24.80;;;;;;5010225;28;20272;-70
2022/11/08 11:15:17;;;;;;;2.90;2.20;;;46.60;24.90;;;;;;5011280;28;20222;-70
2022/11/08 11:17:45;;;;;;;3.22;2.42;;;46.50;25.00;;;;;;5010030;28;20226;-70
2022/11/08 11:20:21;;;;;;;5.13;2.50;;;46.70;25.00;;;;;;5008125;28;20253;-71
2022/11/08 11:22:49;;;;;;;4.47;2.60;;;46.80;24.80;;;;;;5011167;28;20205;-73
2022/11/08 11:25:19;;;;;;;4.78;2.65;;;46.90;24.80;;;;;;5007645;28;20203;-72
2022/11/08 11:27:53;;;;;;;4.32;2.35;;;47.20;24.70;;;;;;5007217;28;20237;-71
2022/11/08 11:30:27;;;;;;;3.58;2.22;;;47.40;24.60;;;;;;5010085;28;20206;-72
2022/11/08 11:33:06;;;;;;;4.65;2.42;;;47.40;24.40;;;;;;5009936;28;20252;-72
2022/11/08 11:35:41;;;;;;;4.40;2.55;;;47.40;24.20;;;;;;5006563;28;20210;-72
2022/11/08 11:38:30;;;;;;;4.72;2.60;;;47.10;24.30;;;;;;5008679;28;20206;-72
2022/11/08 11:41:03;;;;;;;6.20;2.40;;;47.00;24.50;;;;;;5009532;28;20215;-71
2022/11/08 11:43:35;;;;;;;3.17;2.53;;;46.60;24.50;;;;;;5011820;28;20199;-71
2022/11/08 11:46:08;;;;;;;5.00;2.60;;;45.30;24.10;;;;;;5012020;28;20199;-71
2022/11/08 11:48:41;;;;;;;4.60;2.70;;;42.80;25.10;;;;;;5002925;28;20198;-72
2022/11/08 11:51:10;;;;;;;4.75;2.83;;;39.80;26.80;;;;;;5008038;28;20205;-72
2022/11/08 11:53:38;;;;;;;4.43;2.80;;;37.00;28.50;;;;;;5009481;28;20656;-72
2022/11/08 11:56:32;;;;;;;7.85;3.10;;;34.50;30.40;;;;;;5010310;28;20641;-71
2022/11/08 11:59:50;;;;;;;6.07;2.58;;;32.00;33.50;;;;;;4999855;28;20226;-72
2022/11/08 12:03:04;;;;;;;4.65;3.10;;;29.80;36.30;;;;;;5005018;28;20210;-71
2022/11/08 12:06:03;;;;;;;4.15;2.88;;;27.90;39.10;;;;;;5008656;28;20609;-73
2022/11/08 12:08:42;;;;;;;8.40;2.97;;;26.20;41.70;;;;;;5008146;28;20235;-73
2022/11/08 12:11:35;;;;;;;5.70;3.00;;;25.00;43.90;;;;;;4997884;28;20236;-73
2022/11/08 12:14:23;;;;;;;4.93;3.03;;;23.80;45.40;;;;;;5008608;28;20231;-73
2022/11/08 12:16:57;;;;;;;5.07;2.80;;;22.90;47.10;;;;;;5010625;28;20295;-72
2022/11/08 12:19:40;;;;;;;3.65;2.58;;;22.10;48.40;;;;;;5010953;28;20236;-73
2022/11/08 12:22:27;;;;;;;7.00;2.88;;;21.50;49.90;;;;;;5008357;28;20207;-72
2022/11/08 12:25:01;;;;;;;4.22;2.78;;;21.00;51.20;;;;;;5009716;28;20199;-72
2022/11/08 12:27:39;;;;;;;5.25;3.03;;;20.50;52.20;;;;;;5010893;28;20209;-70
2022/11/08 12:30:11;;;;;;;5.57;2.78;;;20.20;53.10;;;;;;5008283;28;20298;-71
2022/11/08 12:32:56;;;;;;;3.95;2.50;;;19.80;54.60;;;;;;5007507;28;20215;-74
2022/11/08 12:35:34;;;;;;;4.93;2.60;;;19.40;54.90;;;;;;5011124;28;20223;-70
2022/11/08 12:38:17;;;;;;;5.57;2.88;;;19.00;55.80;;;;;;5010043;28;20709;-70
2022/11/08 12:40:54;;;;;;;5.20;3.10;;;18.70;56.80;;;;;;5008558;28;20214;-73
2022/11/08 12:43:41;;;;;;;5.03;3.00;;;18.50;58.40;;;;;;5013295;28;20268;-72
2022/11/08 12:46:15;;;;;;;4.82;2.88;;;18.20;58.60;;;;;;5011746;28;20207;-71
2022/11/08 12:49:01;;;;;;;4.88;3.05;;;17.90;59.40;;;;;;5016624;28;20203;-72
2022/11/08 12:51:40;;;;;;;6.72;3.28;;;17.70;60.20;;;;;;5009039;28;20207;-71
2022/11/08 12:54:22;;;;;;;6.90;4.55;;;17.50;61.20;;;;;;5013892;28;20214;-71
2022/11/08 12:56:54;;;;;;;6.10;3.65;;;17.30;62.10;;;;;;5014055;28;20209;-70
2022/11/08 12:59:25;;;;;;;5.22;2.70;;;17.20;62.80;;;;;;5014232;28;20227;-72
2022/11/08 13:01:53;;;;;;;4.40;2.87;;;17.10;63.60;;;;;;5012895;28;20207;-71
2022/11/08 13:04:35;;;;;;;5.47;3.47;;;17.00;64.20;;;;;;5014079;28;20235;-71
2022/11/08 13:07:11;;;;;;;6.27;3.37;;;16.90;64.60;;;;;;5009478;28;20207;-71
2022/11/08 13:09:44;;;;;;;6.67;3.13;;;16.80;65.30;;;;;;5013651;28;20203;-71
2022/11/08 13:12:25;;;;;;;7.57;3.47;;;16.70;66.00;;;;;;5014858;28;20195;-70
2022/11/08 13:14:52;;;;;;;4.80;3.40;;;16.60;66.50;;;;;;5013650;28;20557;-71
2022/11/08 13:17:21;;;;;;;5.73;3.40;;;16.50;67.00;;;;;;5011121;28;20203;-72